sensor_id;sensor_type;location;lat;lon;timestamp;pressure;altitude;pressure_sealevel;temperature;humidity
39051;BME280;24805;55.852;37.644;2023-06-01T00:03:46;98946.47;;;10.89;61.77
39051;BME280;24805;55.852;37.644;2023-06-01T00:08:49;98941.16;;;10.89;61.25
39051;BME280;24805;55.852;37.644;2023-06-01T00:13:51;98933.38;;;10.87;61.77
39051;BME280;24805;55.852;37.644;2023-06-01T00:18:54;98940.13;;;10.90;61.38
39051;BME280;24805;55.852;37.644;2023-06-01T00:23:58;98930.28;;;10.84;61.17
39051;BME280;24805;55.852;37.644;2023-06-01T00:29:03;98940.72;;;10.85;61.28
39051;BME280;24805;55.852;37.644;2023-06-01T00:34:05;98926.81;;;10.83;61.30
39051;BME280;24805;55.852;37.644;2023-06-01T00:39:09;98940.28;;;10.82;60.70
39051;BME280;24805;55.852;37.644;2023-06-01T00:44:11;98931.69;;;10.80;60.97
39051;BME280;24805;55.852;37.644;2023-06-01T00:49:13;98931.69;;;10.80;60.28
39051;BME280;24805;55.852;37.644;2023-06-01T00:54:16;98924.94;;;10.77;60.55
39051;BME280;24805;55.852;37.644;2023-06-01T00:59:18;98925.53;;;10.73;60.34
39051;BME280;24805;55.852;37.644;2023-06-01T01:04:20;98918.78;;;10.70;60.61
39051;BME280;24805;55.852;37.644;2023-06-01T01:09:53;98919.47;;;10.85;60.25
39051;BME280;24805;55.852;37.644;2023-06-01T01:15:04;98922.00;;;10.65;60.99
39051;BME280;24805;55.852;37.644;2023-06-01T01:20:14;98920.03;;;10.74;60.97
39051;BME280;24805;55.852;37.644;2023-06-01T01:30:59;98915.72;;;10.73;60.01
39051;BME280;24805;55.852;37.644;2023-06-01T01:36:05;98902.91;;;10.77;60.32
39051;BME280;24805;55.852;37.644;2023-06-01T01:41:09;98906.56;;;10.76;59.77
39051;BME280;24805;55.852;37.644;2023-06-01T01:46:24;98911.75;;;10.90;59.03
39051;BME280;24805;55.852;37.644;2023-06-01T01:51:44;98907.53;;;10.96;58.63
39051;BME280;24805;55.852;37.644;2023-06-01T01:56:53;98920.56;;;10.91;58.75
39051;BME280;24805;55.852;37.644;2023-06-01T02:01:58;98894.94;;;10.77;58.66
39051;BME280;24805;55.852;37.644;2023-06-01T02:07:00;98912.84;;;10.96;57.91
39051;BME280;24805;55.852;37.644;2023-06-01T02:12:06;98903.06;;;11.03;57.86
39051;BME280;24805;55.852;37.644;2023-06-01T02:17:09;98912.09;;;11.09;57.46
39051;BME280;24805;55.852;37.644;2023-06-01T02:22:11;98915.59;;;11.16;57.51
39051;BME280;24805;55.852;37.644;2023-06-01T02:27:14;98921.38;;;11.26;56.46
39051;BME280;24805;55.852;37.644;2023-06-01T02:32:17;98918.56;;;11.34;55.91
39051;BME280;24805;55.852;37.644;2023-06-01T02:37:19;98915.91;;;11.40;56.02
39051;BME280;24805;55.852;37.644;2023-06-01T02:42:21;98919.81;;;11.45;56.07
39051;BME280;24805;55.852;37.644;2023-06-01T02:47:23;98932.00;;;11.73;54.57
39051;BME280;24805;55.852;37.644;2023-06-01T02:52:25;98941.06;;;11.86;54.12
39051;BME280;24805;55.852;37.644;2023-06-01T02:57:27;98939.88;;;12.01;54.37
39051;BME280;24805;55.852;37.644;2023-06-01T03:02:36;98935.84;;;12.19;53.30
39051;BME280;24805;55.852;37.644;2023-06-01T03:07:38;98934.22;;;12.31;52.82
39051;BME280;24805;55.852;37.644;2023-06-01T03:12:47;98944.88;;;12.44;51.95
39051;BME280;24805;55.852;37.644;2023-06-01T03:17:49;98940.38;;;12.64;52.32
39051;BME280;24805;55.852;37.644;2023-06-01T03:22:52;98942.81;;;12.86;51.40
39051;BME280;24805;55.852;37.644;2023-06-01T03:27:54;98939.94;;;13.07;51.11
39051;BME280;24805;55.852;37.644;2023-06-01T03:32:57;98940.94;;;13.32;50.74
39051;BME280;24805;55.852;37.644;2023-06-01T03:37:59;98946.00;;;13.54;50.10
39051;BME280;24805;55.852;37.644;2023-06-01T03:43:01;98944.69;;;13.76;49.46
39051;BME280;24805;55.852;37.644;2023-06-01T03:48:05;98948.09;;;13.96;48.69
39051;BME280;24805;55.852;37.644;2023-06-01T03:53:08;98923.38;;;14.07;48.29
39051;BME280;24805;55.852;37.644;2023-06-01T03:58:10;98940.63;;;14.43;48.24
39051;BME280;24805;55.852;37.644;2023-06-01T04:03:13;98937.38;;;14.66;48.83
39051;BME280;24805;55.852;37.644;2023-06-01T04:08:17;98935.66;;;14.78;48.23
39051;BME280;24805;55.852;37.644;2023-06-01T04:13:22;98909.25;;;14.88;47.81
39051;BME280;24805;55.852;37.644;2023-06-01T04:18:24;98924.59;;;15.18;47.40
39051;BME280;24805;55.852;37.644;2023-06-01T04:23:32;98926.66;;;15.34;46.63
39051;BME280;24805;55.852;37.644;2023-06-01T04:28:36;98931.19;;;15.51;45.37
39051;BME280;24805;55.852;37.644;2023-06-01T04:33:38;98925.03;;;15.69;44.50
39051;BME280;24805;55.852;37.644;2023-06-01T04:38:42;98925.63;;;16.01;44.00
39051;BME280;24805;55.852;37.644;2023-06-01T04:43:44;98926.91;;;16.29;42.48
39051;BME280;24805;55.852;37.644;2023-06-01T04:48:47;98918.56;;;16.48;42.52
39051;BME280;24805;55.852;37.644;2023-06-01T04:53:51;98921.31;;;16.72;42.76
39051;BME280;24805;55.852;37.644;2023-06-01T04:58:55;98920.03;;;16.86;42.31
39051;BME280;24805;55.852;37.644;2023-06-01T05:03:59;98918.53;;;17.13;41.76
39051;BME280;24805;55.852;37.644;2023-06-01T05:09:02;98919.53;;;17.47;41.05
39051;BME280;24805;55.852;37.644;2023-06-01T05:14:07;98912.16;;;17.66;39.98
39051;BME280;24805;55.852;37.644;2023-06-01T05:19:10;98923.28;;;17.86;39.74
39051;BME280;24805;55.852;37.644;2023-06-01T05:24:13;98913.16;;;18.05;39.55
39051;BME280;24805;55.852;37.644;2023-06-01T05:29:15;98907.13;;;18.43;38.91
39051;BME280;24805;55.852;37.644;2023-06-01T05:34:17;98905.28;;;19.33;37.39
39051;BME280;24805;55.852;37.644;2023-06-01T05:39:20;98910.41;;;20.26;35.23
39051;BME280;24805;55.852;37.644;2023-06-01T05:44:23;98900.81;;;21.05;33.38
39051;BME280;24805;55.852;37.644;2023-06-01T05:49:26;98913.03;;;21.70;32.20
39051;BME280;24805;55.852;37.644;2023-06-01T05:54:33;98906.66;;;21.96;31.16
39051;BME280;24805;55.852;37.644;2023-06-01T05:59:35;98895.41;;;22.45;30.73
39051;BME280;24805;55.852;37.644;2023-06-01T06:04:38;98901.59;;;23.16;30.43
39051;BME280;24805;55.852;37.644;2023-06-01T06:09:41;98907.50;;;23.23;29.88
39051;BME280;24805;55.852;37.644;2023-06-01T06:14:43;98906.31;;;23.65;28.70
39051;BME280;24805;55.852;37.644;2023-06-01T06:19:45;98905.25;;;24.15;29.10
39051;BME280;24805;55.852;37.644;2023-06-01T06:24:49;98914.66;;;24.62;27.85
39051;BME280;24805;55.852;37.644;2023-06-01T06:29:51;98901.81;;;24.78;27.55
39051;BME280;24805;55.852;37.644;2023-06-01T06:34:53;98891.38;;;24.95;26.83
39051;BME280;24805;55.852;37.644;2023-06-01T06:39:56;98881.94;;;25.16;26.64
39051;BME280;24805;55.852;37.644;2023-06-01T06:44:58;98889.50;;;25.86;25.76
39051;BME280;24805;55.852;37.644;2023-06-01T06:50:01;98872.47;;;26.18;24.55
39051;BME280;24805;55.852;37.644;2023-06-01T06:55:05;98876.28;;;26.54;24.75
39051;BME280;24805;55.852;37.644;2023-06-01T07:00:08;98868.94;;;27.01;24.16
39051;BME280;24805;55.852;37.644;2023-06-01T07:05:16;98871.78;;;27.37;23.40
39051;BME280;24805;55.852;37.644;2023-06-01T07:10:19;98864.09;;;26.98;23.75
39051;BME280;24805;55.852;37.644;2023-06-01T07:15:21;98862.78;;;27.23;23.08
39051;BME280;24805;55.852;37.644;2023-06-01T07:20:24;98848.22;;;27.96;22.24
39051;BME280;24805;55.852;37.644;2023-06-01T07:25:27;98848.03;;;28.59;22.09
39051;BME280;24805;55.852;37.644;2023-06-01T07:30:29;98828.78;;;28.87;20.86
39051;BME280;24805;55.852;37.644;2023-06-01T07:35:31;98847.41;;;28.62;20.79
39051;BME280;24805;55.852;37.644;2023-06-01T07:40:35;98838.16;;;28.94;20.91
39051;BME280;24805;55.852;37.644;2023-06-01T07:45:39;98830.47;;;29.44;19.96
39051;BME280;24805;55.852;37.644;2023-06-01T07:50:41;98824.13;;;30.01;19.50
39051;BME280;24805;55.852;37.644;2023-06-01T07:55:43;98826.03;;;30.35;19.20
39051;BME280;24805;55.852;37.644;2023-06-01T08:00:46;98827.16;;;30.25;19.15
39051;BME280;24805;55.852;37.644;2023-06-01T08:05:48;98812.00;;;30.54;18.60
39051;BME280;24805;55.852;37.644;2023-06-01T08:10:50;98819.16;;;31.31;18.79
39051;BME280;24805;55.852;37.644;2023-06-01T08:15:55;98818.09;;;32.36;17.84
39051;BME280;24805;55.852;37.644;2023-06-01T08:20:57;98829.88;;;32.15;17.05
39051;BME280;24805;55.852;37.644;2023-06-01T08:26:02;98821.69;;;32.07;17.56
39051;BME280;24805;55.852;37.644;2023-06-01T08:31:04;98808.94;;;31.90;17.86
39051;BME280;24805;55.852;37.644;2023-06-01T08:36:07;98796.75;;;32.21;17.61
39051;BME280;24805;55.852;37.644;2023-06-01T08:41:44;98798.81;;;32.57;18.49
39051;BME280;24805;55.852;37.644;2023-06-01T08:46:47;98785.63;;;32.50;17.48
39051;BME280;24805;55.852;37.644;2023-06-01T08:51:52;98790.66;;;32.48;17.85
39051;BME280;24805;55.852;37.644;2023-06-01T08:56:59;98802.88;;;32.17;18.16
39051;BME280;24805;55.852;37.644;2023-06-01T09:02:02;98774.00;;;31.78;18.19
39051;BME280;24805;55.852;37.644;2023-06-01T09:07:05;98779.22;;;30.36;19.45
39051;BME280;24805;55.852;37.644;2023-06-01T09:12:25;98780.91;;;30.67;19.73
39051;BME280;24805;55.852;37.644;2023-06-01T09:17:35;98779.72;;;30.12;19.75
39051;BME280;24805;55.852;37.644;2023-06-01T09:22:45;98775.72;;;30.74;19.07
39051;BME280;24805;55.852;37.644;2023-06-01T09:27:49;98775.19;;;31.48;18.31
39051;BME280;24805;55.852;37.644;2023-06-01T09:33:13;98778.53;;;32.61;18.32
39051;BME280;24805;55.852;37.644;2023-06-01T09:38:24;98769.31;;;33.51;16.38
39051;BME280;24805;55.852;37.644;2023-06-01T09:43:28;98777.34;;;33.96;15.05
39051;BME280;24805;55.852;37.644;2023-06-01T09:48:30;98771.19;;;33.87;15.34
39051;BME280;24805;55.852;37.644;2023-06-01T09:53:42;98765.69;;;33.87;16.36
39051;BME280;24805;55.852;37.644;2023-06-01T09:58:45;98764.53;;;32.99;16.39
39051;BME280;24805;55.852;37.644;2023-06-01T10:03:49;98755.34;;;33.44;15.96
39051;BME280;24805;55.852;37.644;2023-06-01T10:08:55;98753.78;;;33.31;16.06
39051;BME280;24805;55.852;37.644;2023-06-01T10:13:59;98740.78;;;33.56;16.02
39051;BME280;24805;55.852;37.644;2023-06-01T10:19:01;98773.28;;;33.78;14.47
39051;BME280;24805;55.852;37.644;2023-06-01T10:24:04;98757.16;;;34.64;14.40
39051;BME280;24805;55.852;37.644;2023-06-01T10:29:06;98759.28;;;35.33;13.56
39051;BME280;24805;55.852;37.644;2023-06-01T10:34:11;98781.78;;;35.35;13.29
39051;BME280;24805;55.852;37.644;2023-06-01T10:39:28;98752.09;;;35.13;13.55
39051;BME280;24805;55.852;37.644;2023-06-01T11:00:24;98746.44;;;35.60;13.54
39051;BME280;24805;55.852;37.644;2023-06-01T11:05:40;98749.53;;;36.32;13.38
39051;BME280;24805;55.852;37.644;2023-06-01T11:16:27;98738.22;;;36.21;13.83
39051;BME280;24805;55.852;37.644;2023-06-01T11:21:37;98727.56;;;35.62;14.16
39051;BME280;24805;55.852;37.644;2023-06-01T11:26:49;98746.78;;;34.88;14.43
39051;BME280;24805;55.852;37.644;2023-06-01T11:36:56;98735.66;;;35.71;13.23
39051;BME280;24805;55.852;37.644;2023-06-01T11:42:17;98737.69;;;35.54;14.24
39051;BME280;24805;55.852;37.644;2023-06-01T11:47:19;98712.47;;;35.21;13.43
39051;BME280;24805;55.852;37.644;2023-06-01T11:52:22;98737.38;;;34.89;13.19
39051;BME280;24805;55.852;37.644;2023-06-01T11:57:24;98728.81;;;34.47;14.18
39051;BME280;24805;55.852;37.644;2023-06-01T12:02:28;98729.16;;;32.85;14.77
39051;BME280;24805;55.852;37.644;2023-06-01T12:12:51;98727.38;;;31.78;16.30
39051;BME280;24805;55.852;37.644;2023-06-01T12:17:55;98719.31;;;32.15;16.31
39051;BME280;24805;55.852;37.644;2023-06-01T12:23:11;98730.44;;;31.98;16.17
39051;BME280;24805;55.852;37.644;2023-06-01T12:28:16;98726.00;;;29.91;17.74
39051;BME280;24805;55.852;37.644;2023-06-01T12:33:36;98720.78;;;29.11;18.71
39051;BME280;24805;55.852;37.644;2023-06-01T12:38:51;98706.41;;;28.80;19.52
39051;BME280;24805;55.852;37.644;2023-06-01T12:43:54;98721.28;;;29.13;19.47
39051;BME280;24805;55.852;37.644;2023-06-01T12:49:16;98718.25;;;30.10;19.32
39051;BME280;24805;55.852;37.644;2023-06-01T12:54:21;98719.53;;;29.35;19.16
39051;BME280;24805;55.852;37.644;2023-06-01T12:59:24;98702.97;;;28.66;20.04
39051;BME280;24805;55.852;37.644;2023-06-01T13:04:26;98713.13;;;28.12;20.64
39051;BME280;24805;55.852;37.644;2023-06-01T13:09:28;98716.59;;;28.26;20.55
39051;BME280;24805;55.852;37.644;2023-06-01T13:14:30;98710.34;;;28.26;20.74
39051;BME280;24805;55.852;37.644;2023-06-01T13:19:33;98723.47;;;27.43;21.17
39051;BME280;24805;55.852;37.644;2023-06-01T13:24:35;98713.22;;;27.26;21.52
39051;BME280;24805;55.852;37.644;2023-06-01T13:29:54;98714.00;;;27.40;21.72
39051;BME280;24805;55.852;37.644;2023-06-01T13:34:56;98700.38;;;27.04;22.12
39051;BME280;24805;55.852;37.644;2023-06-01T13:39:58;98711.66;;;26.70;22.76
39051;BME280;24805;55.852;37.644;2023-06-01T13:45:01;98707.25;;;26.28;22.54
39051;BME280;24805;55.852;37.644;2023-06-01T13:50:04;98695.81;;;25.66;23.56
39051;BME280;24805;55.852;37.644;2023-06-01T13:55:08;98715.97;;;25.41;23.92
39051;BME280;24805;55.852;37.644;2023-06-01T14:00:11;98716.13;;;25.31;24.16
39051;BME280;24805;55.852;37.644;2023-06-01T14:05:17;98715.16;;;25.22;24.43
39051;BME280;24805;55.852;37.644;2023-06-01T14:10:32;98717.56;;;25.05;24.59
39051;BME280;24805;55.852;37.644;2023-06-01T14:15:36;98725.44;;;25.06;24.76
39051;BME280;24805;55.852;37.644;2023-06-01T14:20:38;98723.66;;;24.97;24.69
39051;BME280;24805;55.852;37.644;2023-06-01T14:25:40;98713.63;;;24.97;24.95
39051;BME280;24805;55.852;37.644;2023-06-01T14:30:42;98696.84;;;24.90;25.14
39051;BME280;24805;55.852;37.644;2023-06-01T14:35:44;98719.66;;;24.89;24.91
39051;BME280;24805;55.852;37.644;2023-06-01T14:40:48;98723.56;;;24.78;25.40
39051;BME280;24805;55.852;37.644;2023-06-01T14:45:50;98708.03;;;24.84;25.54
39051;BME280;24805;55.852;37.644;2023-06-01T14:50:52;98719.19;;;25.06;25.64
39051;BME280;24805;55.852;37.644;2023-06-01T14:55:55;98713.56;;;25.21;25.36
39051;BME280;24805;55.852;37.644;2023-06-01T15:00:57;98717.81;;;25.09;25.13
39051;BME280;24805;55.852;37.644;2023-06-01T15:06:00;98706.72;;;24.81;25.40
39051;BME280;24805;55.852;37.644;2023-06-01T15:11:03;98711.69;;;24.50;25.50
39051;BME280;24805;55.852;37.644;2023-06-01T15:16:06;98711.09;;;24.29;26.33
39051;BME280;24805;55.852;37.644;2023-06-01T15:21:09;98703.66;;;24.11;26.41
39051;BME280;24805;55.852;37.644;2023-06-01T15:26:11;98702.91;;;24.05;26.40
39051;BME280;24805;55.852;37.644;2023-06-01T15:31:13;98694.06;;;23.95;26.29
39051;BME280;24805;55.852;37.644;2023-06-01T15:36:16;98697.94;;;23.84;26.87
39051;BME280;24805;55.852;37.644;2023-06-01T15:41:18;98690.91;;;23.83;26.69
39051;BME280;24805;55.852;37.644;2023-06-01T15:46:20;98694.66;;;23.87;27.03
39051;BME280;24805;55.852;37.644;2023-06-01T15:51:23;98696.88;;;23.80;26.97
39051;BME280;24805;55.852;37.644;2023-06-01T15:56:26;98694.28;;;23.69;27.04
39051;BME280;24805;55.852;37.644;2023-06-01T16:01:28;98676.81;;;23.47;27.29
39051;BME280;24805;55.852;37.644;2023-06-01T16:06:31;98701.97;;;23.52;27.26
39051;BME280;24805;55.852;37.644;2023-06-01T16:11:33;98686.31;;;23.39;27.65
39051;BME280;24805;55.852;37.644;2023-06-01T16:16:35;98684.25;;;23.26;27.78
39051;BME280;24805;55.852;37.644;2023-06-01T16:21:38;98693.19;;;23.21;27.66
39051;BME280;24805;55.852;37.644;2023-06-01T16:26:40;98697.34;;;23.09;28.16
39051;BME280;24805;55.852;37.644;2023-06-01T16:31:42;98669.03;;;22.91;28.29
39051;BME280;24805;55.852;37.644;2023-06-01T16:36:45;98689.03;;;22.95;28.14
39051;BME280;24805;55.852;37.644;2023-06-01T16:41:47;98691.50;;;22.81;28.68
39051;BME280;24805;55.852;37.644;2023-06-01T16:46:49;98685.31;;;22.71;28.77
39051;BME280;24805;55.852;37.644;2023-06-01T16:51:52;98692.09;;;22.63;28.96
39051;BME280;24805;55.852;37.644;2023-06-01T16:56:54;98683.78;;;22.49;29.57
39051;BME280;24805;55.852;37.644;2023-06-01T17:01:56;98697.84;;;22.41;29.84
39051;BME280;24805;55.852;37.644;2023-06-01T17:06:58;98708.69;;;22.31;30.32
39051;BME280;24805;55.852;37.644;2023-06-01T17:12:00;98717.06;;;22.24;30.62
39051;BME280;24805;55.852;37.644;2023-06-01T17:17:03;98711.16;;;22.17;30.88
39051;BME280;24805;55.852;37.644;2023-06-01T17:22:06;98712.50;;;22.15;31.24
39051;BME280;24805;55.852;37.644;2023-06-01T17:27:08;98717.63;;;21.96;31.67
39051;BME280;24805;55.852;37.644;2023-06-01T17:32:11;98718.97;;;21.93;31.82
39051;BME280;24805;55.852;37.644;2023-06-01T17:37:13;98725.97;;;21.89;32.10
39051;BME280;24805;55.852;37.644;2023-06-01T17:42:15;98725.97;;;21.84;32.20
39051;BME280;24805;55.852;37.644;2023-06-01T17:47:17;98730.28;;;21.80;32.42
39051;BME280;24805;55.852;37.644;2023-06-01T17:52:20;98735.94;;;21.63;33.07
39051;BME280;24805;55.852;37.644;2023-06-01T17:57:23;98736.47;;;21.45;33.44
39051;BME280;24805;55.852;37.644;2023-06-01T18:02:25;98734.81;;;21.34;33.57
39051;BME280;24805;55.852;37.644;2023-06-01T18:07:27;98726.41;;;21.20;33.63
39051;BME280;24805;55.852;37.644;2023-06-01T18:12:30;98710.69;;;20.97;34.19
39051;BME280;24805;55.852;37.644;2023-06-01T18:17:36;98734.41;;;21.00;34.44
39051;BME280;24805;55.852;37.644;2023-06-01T18:22:38;98733.84;;;20.93;34.96
39051;BME280;24805;55.852;37.644;2023-06-01T18:27:40;98718.13;;;20.70;35.37
39051;BME280;24805;55.852;37.644;2023-06-01T18:32:43;98734.81;;;20.67;35.76
39051;BME280;24805;55.852;37.644;2023-06-01T18:37:45;98742.56;;;20.53;36.35
39051;BME280;24805;55.852;37.644;2023-06-01T18:42:48;98740.00;;;20.36;36.70
39051;BME280;24805;55.852;37.644;2023-06-01T18:47:50;98748.81;;;20.26;37.01
39051;BME280;24805;55.852;37.644;2023-06-01T18:52:52;98741.75;;;20.15;37.49
39051;BME280;24805;55.852;37.644;2023-06-01T18:57:54;98746.47;;;20.03;37.78
39051;BME280;24805;55.852;37.644;2023-06-01T19:02:56;98750.44;;;19.90;38.06
39051;BME280;24805;55.852;37.644;2023-06-01T19:07:59;98762.72;;;19.81;38.37
39051;BME280;24805;55.852;37.644;2023-06-01T19:13:01;98755.38;;;19.72;38.45
39051;BME280;24805;55.852;37.644;2023-06-01T19:18:04;98761.97;;;19.59;38.78
39051;BME280;24805;55.852;37.644;2023-06-01T19:23:07;98755.91;;;19.47;39.02
39051;BME280;24805;55.852;37.644;2023-06-01T19:28:09;98766.81;;;19.35;39.00
39051;BME280;24805;55.852;37.644;2023-06-01T19:33:16;98773.81;;;19.36;39.09
39051;BME280;24805;55.852;37.644;2023-06-01T19:38:18;98766.28;;;19.11;39.84
39051;BME280;24805;55.852;37.644;2023-06-01T19:43:48;98771.50;;;19.23;38.40
39051;BME280;24805;55.852;37.644;2023-06-01T19:48:58;98760.72;;;18.96;40.04
39051;BME280;24805;55.852;37.644;2023-06-01T19:54:02;98770.97;;;18.77;40.40
39051;BME280;24805;55.852;37.644;2023-06-01T19:59:05;98762.75;;;18.67;40.71
39051;BME280;24805;55.852;37.644;2023-06-01T20:04:08;98760.97;;;18.56;41.34
39051;BME280;24805;55.852;37.644;2023-06-01T20:09:15;98760.97;;;18.56;40.92
39051;BME280;24805;55.852;37.644;2023-06-01T20:14:23;98750.06;;;18.46;41.40
39051;BME280;24805;55.852;37.644;2023-06-01T20:19:27;98757.81;;;18.25;41.71
39051;BME280;24805;55.852;37.644;2023-06-01T20:24:30;98769.53;;;18.19;41.87
39051;BME280;24805;55.852;37.644;2023-06-01T20:29:34;98760.28;;;18.10;42.35
39051;BME280;24805;55.852;37.644;2023-06-01T20:34:39;98768.25;;;18.05;42.37
39051;BME280;24805;55.852;37.644;2023-06-01T20:39:42;98773.75;;;17.99;42.57
39051;BME280;24805;55.852;37.644;2023-06-01T20:44:44;98768.81;;;17.90;43.15
39051;BME280;24805;55.852;37.644;2023-06-01T20:49:46;98763.25;;;17.80;43.61
39051;BME280;24805;55.852;37.644;2023-06-01T20:54:49;98775.31;;;17.78;43.63
39051;BME280;24805;55.852;37.644;2023-06-01T20:59:51;98776.03;;;17.73;44.05
39051;BME280;24805;55.852;37.644;2023-06-01T21:04:53;98766.50;;;17.66;44.16
39051;BME280;24805;55.852;37.644;2023-06-01T21:09:55;98770.38;;;17.58;44.41
39051;BME280;24805;55.852;37.644;2023-06-01T21:14:58;98769.69;;;17.51;44.42
39051;BME280;24805;55.852;37.644;2023-06-01T21:20:00;98772.97;;;17.41;44.71
39051;BME280;24805;55.852;37.644;2023-06-01T21:25:04;98773.84;;;17.30;45.07
39051;BME280;24805;55.852;37.644;2023-06-01T21:30:07;98763.44;;;17.17;45.41
39051;BME280;24805;55.852;37.644;2023-06-01T21:35:09;98769.03;;;17.15;45.76
39051;BME280;24805;55.852;37.644;2023-06-01T21:40:11;98772.66;;;17.09;45.90
39051;BME280;24805;55.852;37.644;2023-06-01T21:45:14;98774.63;;;17.02;46.09
39051;BME280;24805;55.852;37.644;2023-06-01T21:50:16;98778.03;;;16.98;46.49
39051;BME280;24805;55.852;37.644;2023-06-01T21:55:18;98781.19;;;16.95;46.40
39051;BME280;24805;55.852;37.644;2023-06-01T22:00:22;98782.94;;;16.89;46.57
39051;BME280;24805;55.852;37.644;2023-06-01T22:05:24;98775.59;;;16.84;46.81
39051;BME280;24805;55.852;37.644;2023-06-01T22:10:27;98770.63;;;16.76;46.95
39051;BME280;24805;55.852;37.644;2023-06-01T22:15:29;98781.09;;;16.66;47.26
39051;BME280;24805;55.852;37.644;2023-06-01T22:20:32;98776.09;;;16.58;47.59
39051;BME280;24805;55.852;37.644;2023-06-01T22:25:34;98786.34;;;16.49;47.15
39051;BME280;24805;55.852;37.644;2023-06-01T22:30:37;98790.97;;;16.42;47.52
39051;BME280;24805;55.852;37.644;2023-06-01T22:35:40;98790.31;;;16.35;47.54
39051;BME280;24805;55.852;37.644;2023-06-01T22:40:42;98786.31;;;16.26;47.49
39051;BME280;24805;55.852;37.644;2023-06-01T22:45:44;98790.72;;;16.20;46.48
39051;BME280;24805;55.852;37.644;2023-06-01T22:50:47;98784.47;;;16.15;46.28
39051;BME280;24805;55.852;37.644;2023-06-01T22:55:49;98788.19;;;16.14;46.19
39051;BME280;24805;55.852;37.644;2023-06-01T23:00:51;98787.59;;;16.12;46.45
39051;BME280;24805;55.852;37.644;2023-06-01T23:05:54;98794.59;;;16.13;46.49
39051;BME280;24805;55.852;37.644;2023-06-01T23:10:57;98800.16;;;16.11;46.25
39051;BME280;24805;55.852;37.644;2023-06-01T23:16:01;98800.84;;;16.07;46.22
39051;BME280;24805;55.852;37.644;2023-06-01T23:21:04;98811.19;;;16.03;46.35
39051;BME280;24805;55.852;37.644;2023-06-01T23:26:09;98814.44;;;16.05;46.14
39051;BME280;24805;55.852;37.644;2023-06-01T23:31:11;98812.00;;;15.92;46.62
39051;BME280;24805;55.852;37.644;2023-06-01T23:36:14;98800.31;;;15.75;46.54
39051;BME280;24805;55.852;37.644;2023-06-01T23:41:19;98817.41;;;15.74;46.10
39051;BME280;24805;55.852;37.644;2023-06-01T23:46:23;98824.91;;;15.65;46.47
39051;BME280;24805;55.852;37.644;2023-06-01T23:51:25;98811.34;;;15.48;46.87
39051;BME280;24805;55.852;37.644;2023-06-01T23:56:28;98831.09;;;15.47;46.28
